createdAt,value
2018-08-06T00:01:01.939Z,37.03
2018-08-06T00:03:30.951Z,37.43
2018-08-06T00:06:00.019Z,37.14
2018-08-06T00:08:29.320Z,36.62
2018-08-06T00:10:58.288Z,36.96
2018-08-06T00:13:27.149Z,36.78
2018-08-06T00:15:56.117Z,36.95
2018-08-06T00:18:25.924Z,37.00
2018-08-06T00:20:54.716Z,36.59
2018-08-06T00:23:23.556Z,36.90
2018-08-06T00:25:52.422Z,36.53
2018-08-06T00:28:21.375Z,36.38
2018-08-06T00:30:50.294Z,36.68
2018-08-06T00:33:19.121Z,37.08
2018-08-06T00:35:47.980Z,37.10
2018-08-06T00:38:16.798Z,36.77
2018-08-06T00:40:45.545Z,36.98
2018-08-06T00:43:14.360Z,36.38
2018-08-06T00:45:43.234Z,36.71
2018-08-06T00:48:12.065Z,37.07
2018-08-06T00:50:40.891Z,36.89
2018-08-06T00:53:09.730Z,36.60
2018-08-06T00:55:38.557Z,36.34
2018-08-06T00:58:07.521Z,37.03
2018-08-06T01:00:36.336Z,36.53
2018-08-06T01:03:05.150Z,36.94
2018-08-06T01:05:34.798Z,36.69
2018-08-06T01:08:03.635Z,36.15
2018-08-06T01:10:32.465Z,36.50
2018-08-06T01:13:01.321Z,36.95
2018-08-06T01:15:30.281Z,36.31
2018-08-06T01:17:59.147Z,36.52
2018-08-06T01:20:27.899Z,36.82
2018-08-06T01:22:56.714Z,36.88
2018-08-06T01:25:25.505Z,36.60
2018-08-06T01:27:54.303Z,36.59
2018-08-06T01:30:23.220Z,36.97
2018-08-06T01:32:52.022Z,36.84
2018-08-06T01:35:20.869Z,36.06
2018-08-06T01:37:49.643Z,36.93
2018-08-06T01:40:18.476Z,36.89
2018-08-06T01:42:47.547Z,36.11
2018-08-06T01:45:17.260Z,36.73
2018-08-06T01:47:46.468Z,36.84
2018-08-06T01:50:17.063Z,36.49
2018-08-06T01:52:46.616Z,36.40
2018-08-06T01:55:16.021Z,36.84
2018-08-06T01:57:44.951Z,36.72
2018-08-06T02:00:15.624Z,36.67
2018-08-06T02:02:44.447Z,36.23
2018-08-06T02:05:13.343Z,37.10
2018-08-06T02:07:42.277Z,37.35
2018-08-06T02:10:14.133Z,36.61
2018-08-06T02:12:43.786Z,36.36
2018-08-06T02:15:13.179Z,36.30
2018-08-06T02:17:42.084Z,36.99
2018-08-06T02:20:13.470Z,37.09
2018-08-06T02:22:42.336Z,36.48
2018-08-06T02:25:11.705Z,36.62
2018-08-06T02:27:40.710Z,36.73
2018-08-06T02:30:14.536Z,37.07
2018-08-06T02:32:43.363Z,36.57
2018-08-06T02:35:13.997Z,36.47
2018-08-06T02:37:43.258Z,36.56
2018-08-06T02:40:14.902Z,36.68
2018-08-06T02:42:43.723Z,36.95
2018-08-06T02:45:12.485Z,36.78
2018-08-06T02:47:41.340Z,36.97
2018-08-06T02:50:11.381Z,36.70
2018-08-06T02:52:41.101Z,36.43
2018-08-06T02:55:11.704Z,36.61
2018-08-06T02:57:40.538Z,36.02
2018-08-06T03:00:11.713Z,36.13
2018-08-06T03:02:41.167Z,36.42
2018-08-06T03:05:12.440Z,36.63
2018-08-06T03:07:41.906Z,36.45
2018-08-06T03:10:10.919Z,36.56
2018-08-06T03:12:39.760Z,36.04
2018-08-06T03:15:09.822Z,36.75
2018-08-06T03:17:39.012Z,36.40
2018-08-06T03:20:08.758Z,36.77
2018-08-06T03:22:38.162Z,36.65
2018-08-06T03:25:09.024Z,36.67
2018-08-06T03:27:37.948Z,36.33
2018-08-06T03:30:09.042Z,36.21
2018-08-06T03:32:38.181Z,36.09
2018-08-06T03:35:08.522Z,36.45
2018-08-06T03:37:37.308Z,36.21
2018-08-06T03:40:06.481Z,36.29
2018-08-06T03:42:35.193Z,36.64
2018-08-06T03:45:04.197Z,36.26
2018-08-06T03:47:33.016Z,36.38
2018-08-06T03:50:01.758Z,36.63
2018-08-06T03:52:30.559Z,36.60
2018-08-06T03:54:59.341Z,36.59
2018-08-06T03:57:28.199Z,36.10
2018-08-06T03:59:56.961Z,36.50
2018-08-06T04:02:25.687Z,35.98
2018-08-06T04:04:54.442Z,36.01
2018-08-06T04:07:23.202Z,35.64
2018-08-06T04:09:51.943Z,35.58
2018-08-06T04:12:20.709Z,35.86
2018-08-06T04:14:49.442Z,35.55
2018-08-06T04:17:18.197Z,35.54
2018-08-06T04:19:47.048Z,35.75
2018-08-06T04:22:15.877Z,36.15
2018-08-06T04:24:44.709Z,35.44
2018-08-06T04:27:13.453Z,36.12
2018-08-06T04:29:42.192Z,35.31
2018-08-06T04:32:11.001Z,35.20
2018-08-06T04:34:39.718Z,35.89
2018-08-06T04:37:08.485Z,35.24
2018-08-06T04:39:37.218Z,35.77
2018-08-06T04:42:06.129Z,35.19
2018-08-06T04:44:34.950Z,36.01
2018-08-06T04:47:03.800Z,35.21
2018-08-06T04:49:32.529Z,35.57
2018-08-06T04:52:01.343Z,35.61
2018-08-06T04:54:30.204Z,35.11
2018-08-06T04:56:59.022Z,35.47
2018-08-06T04:59:27.858Z,35.03
2018-08-06T05:01:56.636Z,35.01
2018-08-06T05:04:25.399Z,35.29
2018-08-06T05:06:54.153Z,35.01
2018-08-06T05:09:25.008Z,35.23
2018-08-06T05:11:53.819Z,35.20
2018-08-06T05:14:22.586Z,35.64
2018-08-06T05:16:51.375Z,35.58
2018-08-06T05:19:20.167Z,35.63
2018-08-06T05:21:49.131Z,35.28
2018-08-06T05:24:18.011Z,35.44
2018-08-06T05:26:46.873Z,35.07
2018-08-06T05:29:15.623Z,35.07
2018-08-06T05:31:44.508Z,35.40
2018-08-06T05:34:13.248Z,34.67
2018-08-06T05:36:42.029Z,34.98
2018-08-06T05:39:10.777Z,34.66
2018-08-06T05:41:39.822Z,35.33
2018-08-06T05:44:08.620Z,35.15
2018-08-06T05:46:37.356Z,35.37
2018-08-06T05:49:06.247Z,35.08
2018-08-06T05:51:35.043Z,34.60
2018-08-06T05:54:04.017Z,34.38
2018-08-06T05:56:32.772Z,34.62
2018-08-06T05:59:01.746Z,34.75
2018-08-06T06:01:30.564Z,34.78
2018-08-06T06:03:59.368Z,34.42
2018-08-06T06:06:28.223Z,34.99
2018-08-06T06:08:57.027Z,35.24
2018-08-06T06:11:25.812Z,34.83
2018-08-06T06:13:54.683Z,34.76
2018-08-06T06:16:23.561Z,34.72
2018-08-06T06:18:52.355Z,34.33
2018-08-06T06:21:21.463Z,34.77
2018-08-06T06:23:50.178Z,34.36
2018-08-06T06:26:18.981Z,34.87
2018-08-06T06:28:47.779Z,34.59
2018-08-06T06:31:16.723Z,34.83
2018-08-06T06:33:45.562Z,34.30
2018-08-06T06:36:14.335Z,34.44
2018-08-06T06:38:43.118Z,34.78
2018-08-06T06:41:11.951Z,34.30
2018-08-06T06:43:40.876Z,34.35
2018-08-06T06:46:09.744Z,34.72
2018-08-06T06:48:38.509Z,33.87
2018-08-06T06:51:07.295Z,34.42
2018-08-06T06:53:36.052Z,33.74
2018-08-06T06:56:05.043Z,33.79
2018-08-06T06:58:33.970Z,33.76
2018-08-06T07:01:02.777Z,33.79
2018-08-06T07:03:31.614Z,33.37
2018-08-06T07:06:00.478Z,33.40
2018-08-06T07:08:29.285Z,33.74
2018-08-06T07:10:58.109Z,33.17
2018-08-06T07:13:26.937Z,33.27
2018-08-06T07:15:55.789Z,34.01
2018-08-06T07:18:24.586Z,33.41
2018-08-06T07:20:53.453Z,33.81
2018-08-06T07:23:22.288Z,33.08
2018-08-06T07:25:51.176Z,33.50
2018-08-06T07:28:19.947Z,32.97
2018-08-06T07:30:48.700Z,32.99
2018-08-06T07:33:17.468Z,33.74
2018-08-06T07:35:46.294Z,33.21
2018-08-06T07:38:15.043Z,33.38
2018-08-06T07:40:43.850Z,33.13
2018-08-06T07:43:12.659Z,33.28
2018-08-06T07:45:41.462Z,33.12
2018-08-06T07:48:10.252Z,32.82
2018-08-06T07:50:39.016Z,32.69
2018-08-06T07:53:08.388Z,33.16
2018-08-06T07:55:37.301Z,32.67
2018-08-06T07:58:06.276Z,33.46
2018-08-06T08:00:35.084Z,33.36
2018-08-06T08:03:03.855Z,32.85
2018-08-06T08:05:33.904Z,32.97
2018-08-06T08:08:02.767Z,32.92
2018-08-06T08:10:31.753Z,32.46
2018-08-06T08:13:00.565Z,32.41
2018-08-06T08:15:29.376Z,33.34
2018-08-06T08:17:58.554Z,33.08
2018-08-06T08:20:27.476Z,32.92
2018-08-06T08:22:56.436Z,33.08
2018-08-06T08:25:25.218Z,32.65
2018-08-06T08:27:54.063Z,32.59
2018-08-06T08:30:22.966Z,33.06
2018-08-06T08:32:51.807Z,32.94
2018-08-06T08:35:20.635Z,32.25
2018-08-06T08:37:49.538Z,32.36
2018-08-06T08:40:19.760Z,32.59
2018-08-06T08:42:48.600Z,32.31
2018-08-06T08:45:18.413Z,32.21
2018-08-06T08:47:47.349Z,32.06
2018-08-06T08:50:17.818Z,32.23
2018-08-06T08:52:46.646Z,33.02
2018-08-06T08:55:16.793Z,32.20
2018-08-06T08:57:45.988Z,32.57
2018-08-06T09:00:17.844Z,32.44
2018-08-06T09:02:47.685Z,32.42
2018-08-06T09:05:17.194Z,32.26
2018-08-06T09:07:46.230Z,32.36
2018-08-06T09:10:16.198Z,32.53
2018-08-06T09:12:45.108Z,32.06
2018-08-06T09:15:25.286Z,32.04
2018-08-06T09:17:54.153Z,32.23
2018-08-06T09:20:23.934Z,31.96
2018-08-06T09:22:52.798Z,32.22
2018-08-06T09:25:21.662Z,32.63
2018-08-06T09:27:51.533Z,31.93
2018-08-06T09:30:21.712Z,32.19
2018-08-06T09:32:53.011Z,32.39
2018-08-06T09:35:22.201Z,32.20
2018-08-06T09:37:51.130Z,31.90
2018-08-06T09:40:21.130Z,31.71
2018-08-06T09:42:50.506Z,31.76
2018-08-06T09:45:20.663Z,31.71
2018-08-06T09:47:50.950Z,32.33
2018-08-06T09:50:20.619Z,32.32
2018-08-06T09:52:50.576Z,32.04
2018-08-06T09:55:21.909Z,32.42
2018-08-06T09:57:51.064Z,31.76
2018-08-06T10:00:26.956Z,31.65
2018-08-06T10:02:57.126Z,32.33
2018-08-06T10:05:26.713Z,32.36
2018-08-06T10:07:55.537Z,31.62
2018-08-06T10:10:24.385Z,32.28
2018-08-06T10:12:53.267Z,32.33
2018-08-06T10:15:22.607Z,31.67
2018-08-06T10:17:53.729Z,32.51
2018-08-06T10:20:23.914Z,32.05
2018-08-06T10:22:52.713Z,32.29
2018-08-06T10:25:21.607Z,32.26
2018-08-06T10:27:50.385Z,32.55
2018-08-06T10:30:22.170Z,32.55
2018-08-06T10:32:50.945Z,31.68
2018-08-06T10:35:20.463Z,32.24
2018-08-06T10:37:49.236Z,32.60
2018-08-06T10:40:20.343Z,32.37
2018-08-06T10:42:49.168Z,31.96
2018-08-06T10:45:19.151Z,31.87
2018-08-06T10:47:48.234Z,32.27
2018-08-06T10:50:17.211Z,32.18
2018-08-06T10:52:45.952Z,32.47
2018-08-06T10:55:14.849Z,31.99
2018-08-06T10:57:44.969Z,32.28
2018-08-06T11:00:17.171Z,32.26
2018-08-06T11:02:46.211Z,32.64
2018-08-06T11:05:15.915Z,32.00
2018-08-06T11:07:44.858Z,32.97
2018-08-06T11:10:15.194Z,32.98
2018-08-06T11:12:44.150Z,32.54
2018-08-06T11:15:17.150Z,33.16
2018-08-06T11:17:46.229Z,33.15
2018-08-06T11:20:16.197Z,32.68
2018-08-06T11:22:45.155Z,33.18
2018-08-06T11:25:16.695Z,32.48
2018-08-06T11:27:45.680Z,33.11
2018-08-06T11:30:16.625Z,32.41
2018-08-06T11:32:46.003Z,32.48
2018-08-06T11:35:15.436Z,32.76
2018-08-06T11:37:44.344Z,32.82
2018-08-06T11:40:14.513Z,32.34
2018-08-06T11:42:44.098Z,32.64
2018-08-06T11:45:15.218Z,32.93
2018-08-06T11:47:44.061Z,32.50
2018-08-06T11:50:12.947Z,32.74
2018-08-06T11:52:41.908Z,32.53
2018-08-06T11:55:11.161Z,33.06
2018-08-06T11:57:40.980Z,33.02
2018-08-06T12:00:13.851Z,32.73
2018-08-06T12:02:42.744Z,32.73
2018-08-06T12:05:11.615Z,33.06
2018-08-06T12:07:40.604Z,31.92
2018-08-06T12:10:14.428Z,32.69
2018-08-06T12:12:44.335Z,32.77
2018-08-06T12:15:13.328Z,32.48
2018-08-06T12:17:42.546Z,32.96
2018-08-06T12:20:13.178Z,32.62
2018-08-06T12:22:43.332Z,33.15
2018-08-06T12:25:13.110Z,33.23
2018-08-06T12:27:42.324Z,33.09
2018-08-06T12:30:16.040Z,33.11
2018-08-06T12:32:45.739Z,32.67
2018-08-06T12:35:14.992Z,33.35
2018-08-06T12:37:44.004Z,33.49
2018-08-06T12:40:15.023Z,33.25
2018-08-06T12:42:44.065Z,33.73
2018-08-06T12:45:14.002Z,32.92
2018-08-06T12:47:43.258Z,33.84
2018-08-06T12:50:13.289Z,33.44
2018-08-06T12:52:42.838Z,33.14
2018-08-06T12:55:13.870Z,33.07
2018-08-06T12:57:43.323Z,33.06
2018-08-06T13:00:25.036Z,32.91
2018-08-06T13:02:54.230Z,33.21
2018-08-06T13:05:23.962Z,33.63
2018-08-06T13:07:52.929Z,33.10
2018-08-06T13:10:21.838Z,33.01
2018-08-06T13:12:50.671Z,33.52
2018-08-06T13:15:19.506Z,33.15
2018-08-06T13:17:48.393Z,33.37
2018-08-06T13:20:17.290Z,32.85
2018-08-06T13:22:46.134Z,32.43
2018-08-06T13:25:14.994Z,33.06
2018-08-06T13:27:43.945Z,32.54
2018-08-06T13:30:14.805Z,33.23
2018-08-06T13:32:44.330Z,33.09
2018-08-06T13:35:14.285Z,33.07
2018-08-06T13:37:43.246Z,32.90
2018-08-06T13:40:12.603Z,32.34
2018-08-06T13:42:41.413Z,32.53
2018-08-06T13:45:12.254Z,33.08
2018-08-06T13:47:41.290Z,33.08
2018-08-06T13:50:10.792Z,32.44
2018-08-06T13:52:39.650Z,32.77
2018-08-06T13:55:09.977Z,32.75
2018-08-06T13:57:39.051Z,32.63
2018-08-06T14:00:12.268Z,32.87
2018-08-06T14:02:41.152Z,32.70
2018-08-06T14:05:11.659Z,32.08
2018-08-06T14:07:40.518Z,32.84
2018-08-06T14:10:10.188Z,33.10
2018-08-06T14:12:39.470Z,32.43
2018-08-06T14:15:09.911Z,32.89
2018-08-06T14:17:39.397Z,33.10
2018-08-06T14:20:09.215Z,32.68
2018-08-06T14:22:38.671Z,33.21
2018-08-06T14:25:08.639Z,32.39
2018-08-06T14:27:37.650Z,33.01
2018-08-06T14:30:09.481Z,32.67
2018-08-06T14:32:38.314Z,32.44
2018-08-06T14:35:07.382Z,33.06
2018-08-06T14:37:36.251Z,32.87
2018-08-06T14:40:06.346Z,32.46
2018-08-06T14:42:35.131Z,32.89
2018-08-06T14:45:04.441Z,32.68
2018-08-06T14:47:33.236Z,32.40
2018-08-06T14:50:02.091Z,32.49
2018-08-06T14:52:30.911Z,32.32
2018-08-06T14:54:59.766Z,32.65
2018-08-06T14:57:32.352Z,32.75
2018-08-06T15:00:01.251Z,32.51
2018-08-06T15:02:30.129Z,32.88
2018-08-06T15:04:58.921Z,32.14
2018-08-06T15:07:27.777Z,32.41
2018-08-06T15:09:56.719Z,31.93
2018-08-06T15:12:25.619Z,32.78
2018-08-06T15:14:54.399Z,32.30
2018-08-06T15:17:23.240Z,32.01
2018-08-06T15:19:52.063Z,32.26
2018-08-06T15:22:20.970Z,32.44
2018-08-06T15:24:49.813Z,32.32
2018-08-06T15:27:18.763Z,32.70
2018-08-06T15:29:47.603Z,32.35
2018-08-06T15:32:16.378Z,31.95
2018-08-06T15:34:45.175Z,31.68
2018-08-06T15:37:14.038Z,31.78
2018-08-06T15:39:43.172Z,31.79
2018-08-06T15:42:11.984Z,32.26
2018-08-06T15:44:40.852Z,31.26
2018-08-06T15:47:10.282Z,31.30
2018-08-06T15:49:39.134Z,31.37
2018-08-06T15:52:07.953Z,32.15
2018-08-06T15:54:36.826Z,32.02
2018-08-06T15:57:05.631Z,32.00
2018-08-06T15:59:34.415Z,31.47
2018-08-06T16:02:03.623Z,31.38
2018-08-06T16:04:32.471Z,31.63
2018-08-06T16:07:01.302Z,32.04
2018-08-06T16:09:30.124Z,31.27
2018-08-06T16:11:59.051Z,31.74
2018-08-06T16:14:27.853Z,31.77
2018-08-06T16:16:56.692Z,31.50
2018-08-06T16:19:25.736Z,31.43
2018-08-06T16:21:54.550Z,31.33
2018-08-06T16:24:23.377Z,31.68
2018-08-06T16:26:52.493Z,31.18
2018-08-06T16:29:21.459Z,31.58
2018-08-06T16:31:50.386Z,31.49
2018-08-06T16:34:19.349Z,31.07
2018-08-06T16:36:48.171Z,31.58
2018-08-06T16:39:17.132Z,31.14
2018-08-06T16:41:45.980Z,31.47
2018-08-06T16:44:14.877Z,31.95
2018-08-06T16:46:43.827Z,32.03
2018-08-06T16:49:12.672Z,31.57
2018-08-06T16:51:41.506Z,31.69
2018-08-06T16:54:10.308Z,32.03
2018-08-06T16:56:39.144Z,31.85
2018-08-06T16:59:08.567Z,31.87
2018-08-06T17:01:37.639Z,32.61
2018-08-06T17:04:06.513Z,32.95
2018-08-06T17:06:35.392Z,32.20
2018-08-06T17:09:06.036Z,32.40
2018-08-06T17:11:34.853Z,31.84
2018-08-06T17:14:03.807Z,32.09
2018-08-06T17:16:32.787Z,31.96
2018-08-06T17:19:01.616Z,31.64
2018-08-06T17:21:30.544Z,32.01
2018-08-06T17:23:59.659Z,31.73
2018-08-06T17:26:28.911Z,31.70
2018-08-06T17:29:03.764Z,31.58
2018-08-06T17:31:32.659Z,31.95
2018-08-06T17:34:01.511Z,31.83
2018-08-06T17:36:30.452Z,32.14
2018-08-06T17:38:59.262Z,32.39
2018-08-06T17:41:28.754Z,31.93
2018-08-06T17:43:57.867Z,32.21
2018-08-06T17:46:27.238Z,31.56
2018-08-06T17:48:56.243Z,31.85
2018-08-06T17:51:25.621Z,31.59
2018-08-06T17:53:54.426Z,32.29
2018-08-06T17:56:23.228Z,31.91
2018-08-06T17:58:52.055Z,31.95
2018-08-06T18:01:20.843Z,31.63
2018-08-06T18:03:49.703Z,31.77
2018-08-06T18:06:18.514Z,31.62
2018-08-06T18:08:47.420Z,32.09
2018-08-06T18:11:17.182Z,31.78
2018-08-06T18:13:45.979Z,32.01
2018-08-06T18:16:14.954Z,32.43
2018-08-06T18:18:44.041Z,32.04
2018-08-06T18:21:12.888Z,32.22
2018-08-06T18:23:41.780Z,31.94
2018-08-06T18:26:10.639Z,32.17
2018-08-06T18:28:41.013Z,31.54
2018-08-06T18:31:11.515Z,31.79
2018-08-06T18:33:40.436Z,32.07
2018-08-06T18:36:09.905Z,31.77
2018-08-06T18:38:38.785Z,31.97
2018-08-06T18:41:07.674Z,32.11
2018-08-06T18:43:39.652Z,32.25
2018-08-06T18:46:08.525Z,31.68
2018-08-06T18:48:37.659Z,32.30
2018-08-06T18:51:06.544Z,32.52
2018-08-06T18:53:35.487Z,31.97
2018-08-06T18:56:04.439Z,31.91
2018-08-06T18:58:33.333Z,32.33
2018-08-06T19:01:02.210Z,32.38
2018-08-06T19:03:33.731Z,32.47
2018-08-06T19:06:02.987Z,32.11
2018-08-06T19:08:33.910Z,31.87
2018-08-06T19:11:02.993Z,32.52
2018-08-06T19:13:37.261Z,31.79
2018-08-06T19:16:11.568Z,32.76
2018-08-06T19:18:45.617Z,32.55
2018-08-06T19:21:14.520Z,33.01
2018-08-06T19:23:43.943Z,32.92
2018-08-06T19:26:12.902Z,33.02
2018-08-06T19:28:41.758Z,33.15
2018-08-06T19:31:16.006Z,32.82
2018-08-06T19:33:44.897Z,33.32
2018-08-06T19:36:13.743Z,33.56
2018-08-06T19:38:42.577Z,32.99
2018-08-06T19:41:11.438Z,33.20
2018-08-06T19:43:40.426Z,32.95
2018-08-06T19:46:09.967Z,33.13
2018-08-06T19:48:38.809Z,32.98
2018-08-06T19:51:07.663Z,33.05
2018-08-06T19:53:36.625Z,33.52
2018-08-06T19:56:11.043Z,33.29
2018-08-06T19:58:39.894Z,33.09
2018-08-06T20:01:08.753Z,33.15
2018-08-06T20:03:37.706Z,33.28
2018-08-06T20:06:08.155Z,33.29
2018-08-06T20:08:37.050Z,33.63
2018-08-06T20:11:06.401Z,33.83
2018-08-06T20:13:35.403Z,33.33
2018-08-06T20:16:04.476Z,33.62
2018-08-06T20:18:33.420Z,33.29
2018-08-06T20:21:02.259Z,33.25
2018-08-06T20:23:31.787Z,33.54
2018-08-06T20:26:00.760Z,33.86
2018-08-06T20:28:29.707Z,34.48
2018-08-06T20:30:59.551Z,33.81
2018-08-06T20:33:28.449Z,33.63
2018-08-06T20:35:58.201Z,33.51
2018-08-06T20:38:27.117Z,33.39
2018-08-06T20:40:56.000Z,33.75
2018-08-06T20:43:25.246Z,33.27
2018-08-06T20:45:54.521Z,33.80
2018-08-06T20:48:23.425Z,33.08
2018-08-06T20:50:52.967Z,33.27
2018-08-06T20:53:21.911Z,33.90
2018-08-06T20:55:50.881Z,33.18
2018-08-06T20:58:20.188Z,34.04
2018-08-06T21:00:49.330Z,33.38
2018-08-06T21:03:18.217Z,33.25
2018-08-06T21:05:47.071Z,33.44
2018-08-06T21:08:15.999Z,33.51
2018-08-06T21:10:44.914Z,33.88
2018-08-06T21:13:13.778Z,33.24
2018-08-06T21:15:42.603Z,33.84
2018-08-06T21:18:11.474Z,33.73
2018-08-06T21:20:40.333Z,34.18
2018-08-06T21:23:09.195Z,33.95
2018-08-06T21:25:38.421Z,33.41
2018-08-06T21:28:07.321Z,33.86
2018-08-06T21:30:36.165Z,33.50
2018-08-06T21:33:05.161Z,33.74
2018-08-06T21:35:33.980Z,33.84
2018-08-06T21:38:02.892Z,33.38
2018-08-06T21:40:31.708Z,33.47
2018-08-06T21:43:01.516Z,33.68
2018-08-06T21:45:30.339Z,33.81
2018-08-06T21:47:59.102Z,33.77
2018-08-06T21:50:27.972Z,33.92
2018-08-06T21:52:56.829Z,34.03
2018-08-06T21:55:25.682Z,33.62
2018-08-06T21:57:55.425Z,34.23
2018-08-06T22:00:36.554Z,33.84
2018-08-06T22:03:13.813Z,33.82
2018-08-06T22:05:42.991Z,34.42
2018-08-06T22:08:11.900Z,33.88
2018-08-06T22:10:40.817Z,34.14
2018-08-06T22:13:10.497Z,33.59
2018-08-06T22:15:39.924Z,34.33
2018-08-06T22:18:10.356Z,34.07
2018-08-06T22:20:39.286Z,34.30
2018-08-06T22:23:08.707Z,33.87
2018-08-06T22:25:37.781Z,33.60
2018-08-06T22:28:08.056Z,33.95
2018-08-06T22:30:36.992Z,33.59
2018-08-06T22:33:06.141Z,33.48
2018-08-06T22:35:35.085Z,34.20
2018-08-06T22:38:04.040Z,34.43
2018-08-06T22:40:32.907Z,33.76
2018-08-06T22:43:01.741Z,33.62
2018-08-06T22:45:30.594Z,33.98
2018-08-06T22:47:59.386Z,33.77
2018-08-06T22:50:28.373Z,33.63
2018-08-06T22:52:57.518Z,33.58
2018-08-06T22:55:26.462Z,33.65
2018-08-06T22:57:55.270Z,34.40
2018-08-06T23:00:24.130Z,33.62
2018-08-06T23:02:53.059Z,33.93
2018-08-06T23:05:21.856Z,33.65
2018-08-06T23:07:50.686Z,34.02
2018-08-06T23:10:19.599Z,33.84
2018-08-06T23:12:48.497Z,34.14
2018-08-06T23:15:17.742Z,34.53
2018-08-06T23:17:46.734Z,34.07
2018-08-06T23:20:15.658Z,34.36
2018-08-06T23:22:44.524Z,34.01
2018-08-06T23:25:13.325Z,34.49
2018-08-06T23:27:42.117Z,33.67
2018-08-06T23:30:13.993Z,34.00
2018-08-06T23:32:43.215Z,34.11
2018-08-06T23:35:13.247Z,34.09
2018-08-06T23:37:43.164Z,33.74
2018-08-06T23:40:12.854Z,34.33
2018-08-06T23:42:42.255Z,33.80
2018-08-06T23:45:12.226Z,33.77
2018-08-06T23:47:41.566Z,34.42
2018-08-06T23:50:12.414Z,34.03
2018-08-06T23:52:42.662Z,33.63
2018-08-06T23:55:13.083Z,34.05
2018-08-06T23:57:42.360Z,33.73
